createdAt,value
2022-10-31T00:01:57.926Z,32.90
2022-10-31T00:04:25.559Z,30.50
2022-10-31T00:06:53.120Z,27.55
2022-10-31T00:09:20.384Z,26.20
2022-10-31T00:11:48.035Z,23.45
2022-10-31T00:14:15.452Z,25.27
2022-10-31T00:16:42.937Z,24.60
2022-10-31T00:19:10.264Z,28.60
2022-10-31T00:21:37.903Z,29.27
2022-10-31T00:24:05.632Z,32.22
2022-10-31T00:26:33.863Z,30.88
2022-10-31T00:29:01.871Z,32.70
2022-10-31T00:31:30.197Z,34.38
2022-10-31T00:33:58.922Z,36.35
2022-10-31T00:36:27.922Z,32.33
2022-10-31T00:38:55.185Z,33.28
2022-10-31T00:41:23.062Z,29.23
2022-10-31T00:43:50.648Z,28.65
2022-10-31T00:46:18.302Z,25.67
2022-10-31T00:48:45.584Z,28.25
2022-10-31T00:51:13.638Z,23.58
2022-10-31T00:53:42.312Z,23.98
2022-10-31T00:56:09.965Z,24.98
2022-10-31T00:58:37.371Z,22.98
2022-10-31T01:01:05.234Z,21.25
2022-10-31T01:03:34.207Z,20.27
2022-10-31T01:06:06.032Z,18.55
2022-10-31T01:08:35.090Z,20.60
2022-10-31T01:11:12.224Z,22.77
2022-10-31T01:13:41.334Z,19.38
2022-10-31T01:16:11.567Z,22.60
2022-10-31T01:18:39.142Z,22.52
2022-10-31T01:21:16.205Z,21.85
2022-10-31T01:23:43.877Z,21.77
2022-10-31T01:26:20.949Z,20.15
2022-10-31T01:28:48.137Z,21.02
2022-10-31T01:31:16.628Z,20.35
2022-10-31T01:33:44.676Z,19.40
2022-10-31T01:36:13.555Z,19.80
2022-10-31T01:38:41.082Z,18.70
2022-10-31T01:41:11.374Z,16.63
2022-10-31T01:44:03.838Z,16.23
2022-10-31T01:46:35.687Z,15.80
2022-10-31T01:49:07.448Z,15.55
2022-10-31T01:51:40.011Z,16.85
2022-10-31T01:54:11.336Z,17.35
2022-10-31T01:56:46.008Z,16.30
2022-10-31T01:59:20.175Z,19.00
2022-10-31T02:01:51.296Z,19.35
2022-10-31T02:04:20.186Z,17.40
2022-10-31T02:07:11.857Z,14.98
2022-10-31T02:09:40.903Z,16.80
2022-10-31T02:12:11.769Z,19.33
2022-10-31T02:14:40.497Z,17.98
2022-10-31T02:17:10.288Z,18.08
2022-10-31T02:19:47.568Z,16.65
2022-10-31T02:22:28.004Z,16.27
2022-10-31T02:25:04.490Z,16.33
2022-10-31T02:28:04.647Z,16.58
2022-10-31T02:31:25.592Z,16.50
2022-10-31T02:34:04.071Z,14.48
2022-10-31T02:36:33.857Z,14.65
2022-10-31T02:39:18.233Z,14.60
2022-10-31T02:41:53.582Z,13.13
2022-10-31T02:45:06.442Z,13.10
2022-10-31T02:47:41.168Z,13.48
2022-10-31T02:50:17.900Z,14.05
2022-10-31T02:52:45.155Z,14.43
2022-10-31T02:55:34.797Z,12.38
2022-10-31T03:00:52.865Z,9.27
2022-10-31T03:03:49.383Z,10.23
2022-10-31T03:06:36.343Z,9.18
2022-10-31T03:09:21.693Z,10.80
2022-10-31T03:11:59.043Z,12.55
2022-10-31T03:14:39.313Z,13.52
2022-10-31T03:17:09.892Z,12.25
2022-10-31T03:19:49.223Z,13.07
2022-10-31T03:22:26.927Z,14.30
2022-10-31T03:24:56.978Z,15.23
2022-10-31T03:27:27.583Z,14.20
2022-10-31T03:29:58.807Z,13.95
2022-10-31T03:32:32.970Z,12.80
2022-10-31T03:35:03.727Z,13.90
2022-10-31T03:37:33.837Z,12.60
2022-10-31T03:40:03.356Z,12.95
2022-10-31T03:42:35.997Z,13.10
2022-10-31T03:45:14.683Z,13.60
2022-10-31T03:47:44.973Z,14.07
2022-10-31T03:50:16.328Z,13.05
2022-10-31T03:52:43.823Z,12.80
2022-10-31T03:55:17.683Z,13.30
2022-10-31T03:58:05.323Z,13.35
2022-10-31T04:00:35.928Z,12.88
2022-10-31T04:03:24.312Z,13.27
2022-10-31T04:05:58.643Z,14.10
2022-10-31T04:08:29.301Z,13.73
2022-10-31T04:11:03.720Z,13.05
2022-10-31T04:13:35.088Z,12.27
2022-10-31T04:16:15.978Z,14.35
2022-10-31T04:18:45.304Z,14.10
2022-10-31T04:21:12.520Z,12.88
2022-10-31T04:23:40.168Z,12.70
2022-10-31T04:26:18.378Z,14.82
2022-10-31T04:28:45.877Z,14.13
2022-10-31T04:31:14.402Z,15.48
2022-10-31T04:33:46.293Z,15.15
2022-10-31T04:36:13.569Z,14.43
2022-10-31T04:38:41.127Z,15.02
2022-10-31T04:41:18.054Z,16.77
2022-10-31T04:43:53.539Z,14.18
2022-10-31T04:46:20.918Z,13.68
2022-10-31T04:48:49.978Z,14.90
2022-10-31T04:51:18.098Z,14.27
2022-10-31T04:53:45.773Z,15.57
2022-10-31T04:56:38.998Z,15.60
2022-10-31T04:59:12.859Z,13.82
2022-10-31T05:01:50.854Z,13.70
2022-10-31T05:04:23.197Z,12.95
2022-10-31T05:06:50.778Z,14.40
2022-10-31T05:09:18.240Z,13.80
2022-10-31T05:11:45.647Z,14.30
2022-10-31T05:14:31.928Z,17.30
2022-10-31T05:17:19.411Z,15.43
2022-10-31T05:20:14.998Z,17.73
2022-10-31T05:23:03.874Z,18.08
2022-10-31T05:25:31.690Z,18.58
2022-10-31T05:28:04.380Z,17.80
2022-10-31T05:30:33.114Z,17.48
2022-10-31T05:33:03.708Z,17.17
2022-10-31T05:35:50.297Z,15.93
2022-10-31T05:38:40.784Z,17.38
2022-10-31T05:41:15.483Z,15.68
2022-10-31T05:43:46.893Z,15.43
2022-10-31T05:46:15.688Z,19.27
2022-10-31T05:49:02.869Z,15.13
2022-10-31T05:51:48.513Z,16.77
2022-10-31T05:54:16.230Z,16.77
2022-10-31T05:56:46.112Z,15.48
2022-10-31T05:59:13.257Z,11.13
2022-10-31T06:01:41.649Z,11.13
2022-10-31T06:04:23.623Z,9.02
2022-10-31T06:06:52.385Z,9.27
2022-10-31T06:09:20.533Z,11.88
2022-10-31T06:11:48.087Z,12.00
2022-10-31T06:14:27.873Z,15.95
2022-10-31T06:16:57.065Z,16.50
2022-10-31T06:19:39.696Z,14.65
2022-10-31T06:22:07.598Z,16.58
2022-10-31T06:24:34.974Z,15.38
2022-10-31T06:27:22.758Z,15.05
2022-10-31T06:29:50.577Z,14.63
2022-10-31T06:32:30.968Z,14.52
2022-10-31T06:34:59.238Z,14.38
2022-10-31T06:37:26.725Z,13.52
2022-10-31T06:40:00.322Z,15.02
2022-10-31T06:42:27.926Z,13.18
2022-10-31T06:44:55.462Z,14.45
2022-10-31T06:48:15.942Z,13.45
2022-10-31T06:51:03.742Z,12.88
2022-10-31T06:53:31.305Z,12.23
2022-10-31T06:55:58.658Z,14.77
2022-10-31T06:58:26.807Z,15.30
2022-10-31T07:01:02.345Z,15.63
2022-10-31T07:03:30.082Z,13.80
2022-10-31T07:05:58.365Z,15.13
2022-10-31T07:08:26.587Z,13.32
2022-10-31T07:10:56.590Z,13.57
2022-10-31T07:13:28.537Z,14.57
2022-10-31T07:16:05.624Z,14.93
2022-10-31T07:18:35.463Z,17.23
2022-10-31T07:21:03.767Z,22.33
2022-10-31T07:23:31.297Z,36.67
2022-10-31T07:26:30.475Z,36.10
2022-10-31T07:28:58.347Z,48.42
2022-10-31T07:31:29.166Z,35.92
2022-10-31T07:34:01.993Z,26.30
2022-10-31T07:36:29.308Z,20.63
2022-10-31T07:39:03.523Z,19.73
2022-10-31T07:41:33.054Z,18.90
2022-10-31T07:44:02.010Z,17.80
2022-10-31T07:46:47.376Z,14.75
2022-10-31T07:49:46.746Z,14.52
2022-10-31T07:52:37.244Z,14.60
2022-10-31T07:58:17.516Z,14.77
2022-10-31T08:00:47.497Z,13.57
2022-10-31T08:03:20.521Z,13.00
2022-10-31T08:05:50.592Z,11.98
2022-10-31T08:08:38.846Z,10.85
2022-10-31T08:11:08.573Z,10.75
2022-10-31T08:13:36.066Z,7.22
2022-10-31T08:16:05.644Z,8.25
2022-10-31T08:18:38.683Z,6.78
2022-10-31T08:21:09.925Z,7.35
2022-10-31T08:23:37.488Z,7.47
2022-10-31T08:26:07.294Z,7.78
2022-10-31T08:28:34.791Z,6.80
2022-10-31T08:31:03.719Z,6.80
2022-10-31T08:33:40.534Z,8.00
2022-10-31T08:36:22.034Z,9.45
2022-10-31T08:39:18.715Z,7.30
2022-10-31T08:41:46.677Z,6.43
2022-10-31T08:44:14.303Z,7.30
2022-10-31T08:46:44.956Z,7.63
2022-10-31T08:49:12.339Z,7.85
2022-10-31T08:51:42.258Z,6.80
2022-10-31T08:54:09.799Z,6.80
2022-10-31T08:56:37.394Z,6.57
2022-10-31T08:59:13.069Z,7.10
2022-10-31T09:02:03.821Z,7.07
2022-10-31T09:04:32.306Z,7.30
2022-10-31T09:07:20.650Z,7.90
2022-10-31T09:09:48.026Z,7.25
2022-10-31T09:12:15.803Z,6.15
2022-10-31T09:15:03.146Z,6.63
2022-10-31T09:17:40.066Z,7.38
2022-10-31T09:20:34.789Z,6.57
2022-10-31T09:23:24.506Z,5.85
2022-10-31T09:25:54.082Z,6.88
2022-10-31T09:28:40.956Z,7.10
2022-10-31T09:31:13.917Z,6.15
2022-10-31T09:34:02.045Z,5.70
2022-10-31T09:36:39.642Z,5.35
2022-10-31T09:39:10.343Z,6.50
2022-10-31T09:41:56.090Z,5.32
2022-10-31T09:45:05.064Z,5.25
2022-10-31T09:47:55.929Z,5.15
2022-10-31T09:51:01.471Z,4.70
2022-10-31T09:54:22.181Z,6.05
2022-10-31T09:56:50.821Z,5.15
2022-10-31T09:59:37.176Z,5.28
2022-10-31T10:02:22.780Z,5.50
2022-10-31T10:04:59.582Z,5.03
2022-10-31T10:07:31.824Z,4.70
2022-10-31T10:10:39.353Z,4.28
2022-10-31T10:13:54.429Z,5.38
2022-10-31T10:16:24.667Z,4.93
2022-10-31T10:19:13.203Z,4.38
2022-10-31T10:21:40.894Z,4.32
2022-10-31T10:24:17.485Z,4.65
2022-10-31T10:27:05.348Z,4.43
2022-10-31T10:29:40.766Z,4.32
2022-10-31T10:35:15.081Z,5.05
2022-10-31T10:37:46.504Z,3.75
2022-10-31T10:40:32.487Z,4.00
2022-10-31T10:46:28.093Z,4.30
2022-10-31T10:49:01.347Z,3.22
2022-10-31T10:51:57.759Z,4.25
2022-10-31T10:54:59.168Z,4.27
2022-10-31T10:57:32.443Z,4.10
2022-10-31T11:00:02.879Z,3.28
2022-10-31T11:02:33.853Z,3.75
2022-10-31T11:05:02.996Z,3.28
2022-10-31T11:07:41.212Z,3.67
2022-10-31T11:10:17.726Z,3.70
2022-10-31T11:12:59.696Z,4.30
2022-10-31T11:15:28.926Z,4.22
2022-10-31T11:17:57.595Z,3.58
2022-10-31T11:20:33.093Z,3.38
2022-10-31T11:23:18.602Z,3.55
2022-10-31T11:25:54.162Z,3.63
2022-10-31T11:28:22.062Z,3.92
2022-10-31T11:30:53.613Z,3.85
2022-10-31T11:33:32.138Z,4.28
2022-10-31T11:36:01.333Z,2.78
2022-10-31T11:38:45.173Z,3.97
2022-10-31T11:41:20.156Z,3.17
2022-10-31T11:46:50.122Z,3.85
2022-10-31T11:49:38.854Z,4.40
2022-10-31T11:52:16.716Z,3.72
2022-10-31T11:54:58.617Z,3.42
2022-10-31T11:57:56.522Z,4.05
2022-10-31T12:00:30.545Z,4.18
2022-10-31T12:03:51.826Z,4.83
2022-10-31T12:06:30.670Z,4.55
2022-10-31T12:08:59.355Z,4.65
2022-10-31T12:11:56.978Z,4.10
2022-10-31T12:14:53.172Z,3.60
2022-10-31T12:17:25.827Z,2.75
2022-10-31T12:20:02.015Z,3.03
2022-10-31T12:22:44.278Z,3.50
2022-10-31T12:25:36.046Z,3.00
2022-10-31T12:28:23.927Z,3.22
2022-10-31T12:31:08.127Z,3.70
2022-10-31T12:33:48.403Z,3.10
2022-10-31T12:36:36.586Z,3.05
2022-10-31T12:39:36.155Z,3.05
2022-10-31T12:42:22.961Z,3.25
2022-10-31T12:45:14.997Z,4.18
2022-10-31T12:48:01.880Z,3.72
2022-10-31T12:51:00.326Z,4.00
2022-10-31T12:53:56.370Z,3.15
2022-10-31T13:01:40.406Z,3.78
2022-10-31T13:04:36.911Z,3.22
2022-10-31T13:07:10.308Z,6.13
2022-10-31T13:10:05.557Z,3.85
2022-10-31T13:12:37.525Z,3.50
2022-10-31T13:15:16.104Z,3.45
2022-10-31T13:17:57.368Z,3.42
2022-10-31T13:20:51.506Z,3.80
2022-10-31T13:23:49.796Z,3.90
2022-10-31T13:26:48.624Z,4.15
2022-10-31T13:29:18.947Z,4.47
2022-10-31T13:31:47.475Z,4.25
2022-10-31T13:34:20.758Z,3.67
2022-10-31T13:37:12.466Z,5.13
2022-10-31T13:40:13.462Z,4.32
2022-10-31T13:43:02.399Z,4.40
2022-10-31T13:45:30.162Z,4.10
2022-10-31T13:48:33.802Z,5.15
2022-10-31T13:51:05.665Z,4.47
2022-10-31T13:53:38.853Z,5.43
2022-10-31T13:56:12.142Z,4.95
2022-10-31T13:58:39.732Z,4.82
2022-10-31T14:01:23.903Z,5.40
2022-10-31T14:04:13.857Z,5.35
2022-10-31T14:06:53.833Z,5.60
2022-10-31T14:09:28.560Z,5.95
2022-10-31T14:11:57.728Z,5.30
2022-10-31T14:14:34.643Z,5.85
2022-10-31T14:17:04.315Z,5.43
2022-10-31T14:19:31.627Z,5.82
2022-10-31T14:21:59.344Z,7.18
2022-10-31T14:24:26.623Z,7.72
2022-10-31T14:26:56.208Z,7.03
2022-10-31T14:29:30.847Z,6.55
2022-10-31T14:32:13.842Z,6.20
2022-10-31T14:34:52.154Z,6.95
2022-10-31T14:37:41.314Z,6.38
2022-10-31T14:40:20.859Z,5.35
2022-10-31T14:42:59.684Z,11.70
2022-10-31T14:45:38.395Z,12.45
2022-10-31T14:48:18.765Z,9.43
2022-10-31T14:50:57.148Z,9.30
2022-10-31T14:53:26.328Z,11.60
2022-10-31T14:55:56.146Z,12.38
2022-10-31T14:58:34.072Z,10.95
2022-10-31T15:01:01.977Z,12.98
2022-10-31T15:03:44.787Z,12.05
2022-10-31T15:06:26.834Z,13.93
2022-10-31T15:08:56.166Z,18.60
2022-10-31T15:11:28.197Z,51.28
2022-10-31T15:14:01.320Z,15.73
2022-10-31T15:16:44.066Z,14.52
2022-10-31T15:19:17.104Z,24.55
2022-10-31T15:21:47.131Z,31.60
2022-10-31T15:24:20.044Z,24.38
2022-10-31T15:26:52.923Z,30.73
2022-10-31T15:29:26.048Z,28.98
2022-10-31T15:31:56.006Z,23.60
2022-10-31T15:34:43.424Z,23.85
2022-10-31T15:37:13.853Z,26.23
2022-10-31T15:39:42.577Z,25.33
2022-10-31T15:42:24.864Z,24.42
2022-10-31T15:45:02.624Z,25.00
2022-10-31T15:47:33.107Z,23.13
2022-10-31T15:50:02.792Z,21.48
2022-10-31T15:52:48.286Z,22.25
2022-10-31T15:55:31.032Z,45.20
2022-10-31T15:58:01.744Z,35.00
2022-10-31T16:00:31.374Z,37.60
2022-10-31T16:03:20.800Z,58.45
2022-10-31T16:05:56.214Z,357.30
2022-10-31T16:08:26.905Z,166.05
2022-10-31T16:10:56.113Z,85.20
2022-10-31T16:13:32.707Z,64.47
2022-10-31T16:16:34.266Z,66.72
2022-10-31T16:19:02.442Z,69.85
2022-10-31T16:21:36.244Z,64.70
2022-10-31T16:24:16.934Z,65.90
2022-10-31T16:26:50.042Z,77.93
2022-10-31T16:29:34.109Z,75.05
2022-10-31T16:32:03.017Z,71.07
2022-10-31T16:34:30.486Z,77.10
2022-10-31T16:36:58.214Z,80.53
2022-10-31T16:39:25.718Z,74.25
2022-10-31T16:41:57.049Z,96.43
2022-10-31T16:44:28.205Z,74.20
2022-10-31T16:47:09.765Z,75.75
2022-10-31T16:49:37.254Z,76.13
2022-10-31T16:52:05.346Z,65.78
2022-10-31T16:54:32.608Z,64.45
2022-10-31T16:57:02.123Z,64.32
2022-10-31T16:59:31.282Z,69.43
2022-10-31T17:02:00.073Z,69.45
2022-10-31T17:04:27.672Z,65.63
2022-10-31T17:06:55.274Z,61.95
2022-10-31T17:09:22.837Z,57.38
2022-10-31T17:11:53.534Z,48.25
2022-10-31T17:14:22.252Z,49.08
2022-10-31T17:16:50.574Z,42.97
2022-10-31T17:19:18.125Z,45.97
2022-10-31T17:21:46.065Z,36.08
2022-10-31T17:24:15.392Z,36.35
2022-10-31T17:26:45.333Z,47.65
2022-10-31T17:29:12.827Z,41.75
2022-10-31T17:31:40.798Z,42.42
2022-10-31T17:34:09.286Z,41.17
2022-10-31T17:36:37.523Z,37.95
2022-10-31T17:39:07.667Z,38.20
2022-10-31T17:41:35.856Z,32.10
2022-10-31T17:44:03.485Z,34.60
2022-10-31T17:46:31.147Z,34.28
2022-10-31T17:48:58.448Z,36.67
2022-10-31T17:51:25.967Z,49.40
2022-10-31T17:53:53.360Z,65.85
2022-10-31T17:56:21.095Z,59.80
2022-10-31T17:58:48.798Z,57.70
2022-10-31T18:01:18.921Z,61.85
2022-10-31T18:03:46.966Z,57.10
2022-10-31T18:06:17.277Z,53.42
2022-10-31T18:08:48.598Z,66.32
2022-10-31T18:11:21.905Z,152.77
2022-10-31T18:13:55.635Z,98.65
2022-10-31T18:16:24.032Z,81.22
2022-10-31T18:18:53.613Z,125.65
2022-10-31T18:21:21.923Z,158.32
2022-10-31T18:23:54.646Z,139.38
2022-10-31T18:26:23.759Z,122.80
2022-10-31T18:28:55.472Z,86.10
2022-10-31T18:31:24.217Z,95.13
2022-10-31T18:33:58.609Z,82.30
2022-10-31T18:36:26.450Z,85.97
2022-10-31T18:38:53.788Z,75.32
2022-10-31T18:41:21.447Z,77.88
2022-10-31T18:43:49.253Z,77.88
2022-10-31T18:46:18.744Z,72.88
2022-10-31T18:48:46.672Z,72.57
2022-10-31T18:51:15.019Z,73.97
2022-10-31T18:53:42.242Z,72.22
2022-10-31T18:56:11.601Z,75.78
2022-10-31T18:58:38.928Z,72.50
2022-10-31T19:01:11.220Z,59.63
2022-10-31T19:03:39.553Z,42.80
2022-10-31T19:06:07.973Z,33.40
2022-10-31T19:08:38.742Z,35.40
2022-10-31T19:11:09.750Z,47.05
2022-10-31T19:13:38.803Z,63.33
2022-10-31T19:16:06.854Z,80.43
2022-10-31T19:18:36.665Z,70.88
2022-10-31T19:21:13.032Z,52.58
2022-10-31T19:23:41.048Z,53.10
2022-10-31T19:26:09.163Z,61.05
2022-10-31T19:28:38.949Z,58.55
2022-10-31T19:31:08.354Z,56.70
2022-10-31T19:33:36.668Z,61.70
2022-10-31T19:36:11.162Z,61.63
2022-10-31T19:38:41.952Z,59.30
2022-10-31T19:41:21.347Z,58.92
2022-10-31T19:43:50.625Z,61.30
2022-10-31T19:46:22.807Z,56.88
2022-10-31T19:49:08.188Z,57.55
2022-10-31T19:51:36.475Z,60.08
2022-10-31T19:54:05.258Z,49.58
2022-10-31T19:56:33.920Z,44.28
2022-10-31T19:59:04.622Z,47.88
2022-10-31T20:01:33.096Z,53.08
2022-10-31T20:04:00.667Z,57.03
2022-10-31T20:06:33.063Z,56.60
2022-10-31T20:09:02.835Z,56.38
2022-10-31T20:11:30.964Z,47.78
2022-10-31T20:13:59.750Z,47.92
2022-10-31T20:16:28.840Z,52.80
2022-10-31T20:18:57.153Z,45.05
2022-10-31T20:21:27.177Z,52.20
2022-10-31T20:24:02.554Z,62.42
2022-10-31T20:26:32.403Z,68.32
2022-10-31T20:29:00.868Z,58.85
2022-10-31T20:31:32.247Z,62.83
2022-10-31T20:33:59.927Z,63.65
2022-10-31T20:36:29.722Z,59.40
2022-10-31T20:38:59.188Z,55.45
2022-10-31T20:41:27.244Z,60.63
2022-10-31T20:43:55.360Z,64.45
2022-10-31T20:46:25.641Z,69.57
2022-10-31T20:48:54.398Z,46.38
2022-10-31T20:51:26.055Z,44.63
2022-10-31T20:53:55.333Z,42.50
2022-10-31T20:56:25.182Z,40.15
2022-10-31T20:58:55.687Z,41.75
2022-10-31T21:01:26.441Z,40.47
2022-10-31T21:03:54.013Z,41.63
2022-10-31T21:06:23.547Z,42.78
2022-10-31T21:08:52.677Z,45.95
2022-10-31T21:11:22.891Z,48.70
2022-10-31T21:13:51.543Z,57.10
2022-10-31T21:16:28.713Z,59.72
2022-10-31T21:18:56.334Z,55.30
2022-10-31T21:21:30.735Z,62.50
2022-10-31T21:24:02.534Z,63.10
2022-10-31T21:26:33.620Z,55.45
2022-10-31T21:29:01.732Z,56.35
2022-10-31T21:31:29.875Z,52.40
2022-10-31T21:33:58.029Z,52.25
2022-10-31T21:36:26.468Z,50.13
2022-10-31T21:38:55.579Z,45.65
2022-10-31T21:41:24.665Z,42.78
2022-10-31T21:43:56.301Z,37.10
2022-10-31T21:46:26.965Z,40.70
2022-10-31T21:48:55.137Z,42.47
2022-10-31T21:51:25.893Z,49.58
2022-10-31T21:54:12.163Z,46.58
2022-10-31T21:59:09.584Z,55.03
2022-10-31T22:01:37.738Z,52.08
2022-10-31T22:04:06.008Z,52.63
2022-10-31T22:06:34.163Z,51.22
2022-10-31T22:09:04.039Z,49.08
2022-10-31T22:11:31.833Z,48.00
2022-10-31T22:14:00.749Z,50.28
2022-10-31T22:16:29.982Z,52.40
2022-10-31T22:18:59.510Z,55.13
2022-10-31T22:21:28.352Z,55.97
2022-10-31T22:24:03.277Z,50.08
2022-10-31T22:26:33.412Z,47.20
2022-10-31T22:29:04.059Z,41.80
2022-10-31T22:31:33.088Z,41.42
2022-10-31T22:34:00.392Z,44.97
2022-10-31T22:36:29.868Z,47.35
2022-10-31T22:38:57.907Z,48.10
2022-10-31T22:41:28.458Z,57.05
2022-10-31T22:43:57.098Z,49.95
2022-10-31T22:46:29.416Z,46.65
2022-10-31T22:48:59.713Z,43.88
2022-10-31T22:51:35.533Z,51.72
2022-10-31T22:54:02.807Z,46.88
2022-10-31T22:56:32.643Z,46.58
2022-10-31T22:59:01.184Z,43.13
2022-10-31T23:01:34.621Z,45.05
2022-10-31T23:04:02.662Z,45.35
2022-10-31T23:06:31.923Z,47.60
2022-10-31T23:09:01.197Z,44.63
2022-10-31T23:11:34.613Z,43.38
2022-10-31T23:14:09.245Z,46.88
2022-10-31T23:16:41.788Z,47.60
2022-10-31T23:19:10.522Z,39.80
2022-10-31T23:21:59.909Z,42.05
2022-10-31T23:24:39.444Z,39.65
2022-10-31T23:27:10.747Z,46.90
2022-10-31T23:29:49.848Z,42.05
2022-10-31T23:32:19.995Z,41.38
2022-10-31T23:34:50.329Z,36.53
2022-10-31T23:37:19.412Z,38.05
2022-10-31T23:39:47.018Z,35.88
2022-10-31T23:42:15.796Z,32.72
2022-10-31T23:44:45.772Z,35.53
2022-10-31T23:47:13.331Z,34.80
2022-10-31T23:49:40.740Z,35.13
2022-10-31T23:52:12.020Z,31.52
2022-10-31T23:54:39.903Z,31.50
2022-10-31T23:57:08.230Z,37.70
2022-10-31T23:59:36.931Z,45.67
